sensor_id;sensor_type;location;lat;lon;timestamp;P1;durP1;ratioP1;P2;durP2;ratioP2
60641;SDS011;46837;52.446;-1.930;2023-08-21T00:00:07;8.60;;;1.64;;
60641;SDS011;46837;52.446;-1.930;2023-08-21T00:01:07;2.06;;;0.66;;
60641;SDS011;46837;52.446;-1.930;2023-08-21T00:02:07;2.44;;;1.08;;
60641;SDS011;46837;52.446;-1.930;2023-08-21T00:03:07;7.74;;;1.42;;
60641;SDS011;46837;52.446;-1.930;2023-08-21T00:04:07;7.18;;;1.26;;
60641;SDS011;46837;52.446;-1.930;2023-08-21T00:05:07;2.94;;;0.98;;
60641;SDS011;46837;52.446;-1.930;2023-08-21T00:06:07;5.62;;;1.58;;
60641;SDS011;46837;52.446;-1.930;2023-08-21T00:07:07;8.50;;;1.82;;
60641;SDS011;46837;52.446;-1.930;2023-08-21T00:08:07;5.30;;;1.70;;
60641;SDS011;46837;52.446;-1.930;2023-08-21T00:09:07;5.60;;;1.32;;
60641;SDS011;46837;52.446;-1.930;2023-08-21T00:10:07;3.34;;;1.10;;
60641;SDS011;46837;52.446;-1.930;2023-08-21T00:11:07;8.96;;;1.66;;
60641;SDS011;46837;52.446;-1.930;2023-08-21T00:12:07;8.76;;;1.26;;
60641;SDS011;46837;52.446;-1.930;2023-08-21T00:13:07;4.86;;;0.98;;
60641;SDS011;46837;52.446;-1.930;2023-08-21T00:14:07;3.96;;;1.38;;
60641;SDS011;46837;52.446;-1.930;2023-08-21T00:15:07;4.92;;;1.22;;
60641;SDS011;46837;52.446;-1.930;2023-08-21T00:16:07;6.46;;;1.16;;
60641;SDS011;46837;52.446;-1.930;2023-08-21T00:17:07;7.26;;;1.56;;
60641;SDS011;46837;52.446;-1.930;2023-08-21T00:18:07;10.26;;;2.36;;
60641;SDS011;46837;52.446;-1.930;2023-08-21T00:19:07;3.34;;;1.14;;
60641;SDS011;46837;52.446;-1.930;2023-08-21T00:20:07;10.12;;;2.28;;
60641;SDS011;46837;52.446;-1.930;2023-08-21T00:21:07;2.30;;;0.78;;
60641;SDS011;46837;52.446;-1.930;2023-08-21T00:22:07;4.86;;;1.08;;
60641;SDS011;46837;52.446;-1.930;2023-08-21T00:23:07;9.30;;;2.22;;
60641;SDS011;46837;52.446;-1.930;2023-08-21T00:24:07;7.80;;;1.86;;
60641;SDS011;46837;52.446;-1.930;2023-08-21T00:25:07;6.10;;;1.78;;
60641;SDS011;46837;52.446;-1.930;2023-08-21T00:26:07;4.86;;;0.86;;
60641;SDS011;46837;52.446;-1.930;2023-08-21T00:27:07;5.26;;;1.56;;
60641;SDS011;46837;52.446;-1.930;2023-08-21T00:28:07;6.48;;;1.62;;
60641;SDS011;46837;52.446;-1.930;2023-08-21T00:29:07;4.44;;;1.10;;
60641;SDS011;46837;52.446;-1.930;2023-08-21T00:30:07;5.04;;;1.44;;
60641;SDS011;46837;52.446;-1.930;2023-08-21T00:31:07;7.60;;;1.78;;
60641;SDS011;46837;52.446;-1.930;2023-08-21T00:32:07;6.60;;;1.86;;
60641;SDS011;46837;52.446;-1.930;2023-08-21T00:33:07;5.74;;;1.94;;
60641;SDS011;46837;52.446;-1.930;2023-08-21T00:34:07;5.06;;;1.46;;
60641;SDS011;46837;52.446;-1.930;2023-08-21T00:35:07;5.06;;;1.44;;
60641;SDS011;46837;52.446;-1.930;2023-08-21T00:36:07;7.12;;;1.54;;
60641;SDS011;46837;52.446;-1.930;2023-08-21T00:37:07;6.48;;;1.28;;
60641;SDS011;46837;52.446;-1.930;2023-08-21T00:38:07;6.80;;;1.94;;
60641;SDS011;46837;52.446;-1.930;2023-08-21T00:39:07;4.00;;;1.14;;
60641;SDS011;46837;52.446;-1.930;2023-08-21T00:40:07;6.58;;;1.98;;
60641;SDS011;46837;52.446;-1.930;2023-08-21T00:41:07;9.02;;;1.84;;
60641;SDS011;46837;52.446;-1.930;2023-08-21T00:42:08;8.68;;;2.10;;
60641;SDS011;46837;52.446;-1.930;2023-08-21T00:43:07;4.28;;;1.26;;
60641;SDS011;46837;52.446;-1.930;2023-08-21T00:44:07;5.82;;;1.80;;
60641;SDS011;46837;52.446;-1.930;2023-08-21T00:45:09;3.18;;;1.26;;
60641;SDS011;46837;52.446;-1.930;2023-08-21T00:46:07;3.46;;;1.18;;
60641;SDS011;46837;52.446;-1.930;2023-08-21T00:47:07;4.86;;;1.72;;
60641;SDS011;46837;52.446;-1.930;2023-08-21T00:48:07;4.70;;;1.48;;
60641;SDS011;46837;52.446;-1.930;2023-08-21T00:49:07;8.02;;;1.62;;
60641;SDS011;46837;52.446;-1.930;2023-08-21T00:50:07;4.98;;;1.30;;
60641;SDS011;46837;52.446;-1.930;2023-08-21T00:51:07;3.52;;;1.28;;
60641;SDS011;46837;52.446;-1.930;2023-08-21T00:52:08;12.02;;;1.96;;
60641;SDS011;46837;52.446;-1.930;2023-08-21T00:53:07;6.88;;;1.36;;
60641;SDS011;46837;52.446;-1.930;2023-08-21T00:54:07;6.80;;;2.10;;
60641;SDS011;46837;52.446;-1.930;2023-08-21T00:55:07;4.20;;;1.24;;
60641;SDS011;46837;52.446;-1.930;2023-08-21T00:56:07;6.58;;;1.56;;
60641;SDS011;46837;52.446;-1.930;2023-08-21T00:57:07;6.36;;;1.64;;
60641;SDS011;46837;52.446;-1.930;2023-08-21T00:58:07;4.48;;;2.34;;
60641;SDS011;46837;52.446;-1.930;2023-08-21T00:59:07;4.86;;;2.02;;
60641;SDS011;46837;52.446;-1.930;2023-08-21T01:00:07;4.22;;;1.10;;
60641;SDS011;46837;52.446;-1.930;2023-08-21T01:01:07;4.42;;;1.12;;
60641;SDS011;46837;52.446;-1.930;2023-08-21T01:02:07;9.90;;;1.76;;
60641;SDS011;46837;52.446;-1.930;2023-08-21T01:03:07;6.46;;;1.86;;
60641;SDS011;46837;52.446;-1.930;2023-08-21T01:04:07;4.08;;;1.44;;
60641;SDS011;46837;52.446;-1.930;2023-08-21T01:05:07;5.48;;;1.54;;
60641;SDS011;46837;52.446;-1.930;2023-08-21T01:06:07;4.56;;;1.24;;
60641;SDS011;46837;52.446;-1.930;2023-08-21T01:07:10;6.32;;;2.00;;
60641;SDS011;46837;52.446;-1.930;2023-08-21T01:09:08;6.42;;;1.48;;
60641;SDS011;46837;52.446;-1.930;2023-08-21T01:10:09;6.70;;;1.42;;
60641;SDS011;46837;52.446;-1.930;2023-08-21T01:11:08;6.26;;;1.24;;
60641;SDS011;46837;52.446;-1.930;2023-08-21T01:13:13;4.16;;;1.12;;
60641;SDS011;46837;52.446;-1.930;2023-08-21T01:14:12;5.98;;;1.08;;
60641;SDS011;46837;52.446;-1.930;2023-08-21T01:15:07;5.04;;;1.82;;
60641;SDS011;46837;52.446;-1.930;2023-08-21T01:16:07;8.18;;;1.14;;
60641;SDS011;46837;52.446;-1.930;2023-08-21T01:17:07;10.32;;;1.56;;
60641;SDS011;46837;52.446;-1.930;2023-08-21T01:18:07;5.72;;;1.52;;
60641;SDS011;46837;52.446;-1.930;2023-08-21T01:19:09;6.44;;;1.30;;
60641;SDS011;46837;52.446;-1.930;2023-08-21T01:20:07;8.86;;;2.28;;
60641;SDS011;46837;52.446;-1.930;2023-08-21T01:21:07;2.28;;;1.12;;
60641;SDS011;46837;52.446;-1.930;2023-08-21T01:22:07;5.04;;;1.74;;
60641;SDS011;46837;52.446;-1.930;2023-08-21T01:23:08;3.90;;;1.38;;
60641;SDS011;46837;52.446;-1.930;2023-08-21T01:24:07;4.62;;;1.80;;
60641;SDS011;46837;52.446;-1.930;2023-08-21T01:25:07;5.78;;;1.58;;
60641;SDS011;46837;52.446;-1.930;2023-08-21T01:26:07;6.68;;;1.44;;
60641;SDS011;46837;52.446;-1.930;2023-08-21T01:27:07;11.34;;;2.08;;
60641;SDS011;46837;52.446;-1.930;2023-08-21T01:28:07;5.52;;;1.08;;
60641;SDS011;46837;52.446;-1.930;2023-08-21T01:29:07;4.72;;;1.78;;
60641;SDS011;46837;52.446;-1.930;2023-08-21T01:30:07;8.42;;;2.00;;
60641;SDS011;46837;52.446;-1.930;2023-08-21T01:31:08;14.48;;;2.16;;
60641;SDS011;46837;52.446;-1.930;2023-08-21T01:32:19;7.86;;;1.92;;
60641;SDS011;46837;52.446;-1.930;2023-08-21T01:33:08;5.42;;;1.24;;
60641;SDS011;46837;52.446;-1.930;2023-08-21T01:34:07;10.56;;;1.88;;
60641;SDS011;46837;52.446;-1.930;2023-08-21T01:35:07;4.22;;;1.06;;
60641;SDS011;46837;52.446;-1.930;2023-08-21T01:36:07;4.22;;;1.84;;
60641;SDS011;46837;52.446;-1.930;2023-08-21T01:37:07;6.04;;;1.14;;
60641;SDS011;46837;52.446;-1.930;2023-08-21T01:38:07;10.84;;;1.66;;
60641;SDS011;46837;52.446;-1.930;2023-08-21T01:39:07;2.14;;;1.24;;
60641;SDS011;46837;52.446;-1.930;2023-08-21T01:40:07;2.66;;;1.36;;
60641;SDS011;46837;52.446;-1.930;2023-08-21T01:41:07;7.90;;;1.92;;
60641;SDS011;46837;52.446;-1.930;2023-08-21T01:42:07;6.06;;;1.88;;
60641;SDS011;46837;52.446;-1.930;2023-08-21T01:43:07;5.04;;;1.52;;
60641;SDS011;46837;52.446;-1.930;2023-08-21T01:44:07;4.72;;;1.56;;
60641;SDS011;46837;52.446;-1.930;2023-08-21T01:45:07;9.42;;;2.56;;
60641;SDS011;46837;52.446;-1.930;2023-08-21T01:46:07;10.86;;;1.50;;
60641;SDS011;46837;52.446;-1.930;2023-08-21T01:47:07;4.72;;;1.58;;
60641;SDS011;46837;52.446;-1.930;2023-08-21T01:48:07;6.92;;;2.20;;
60641;SDS011;46837;52.446;-1.930;2023-08-21T01:49:07;6.80;;;1.14;;
60641;SDS011;46837;52.446;-1.930;2023-08-21T01:50:07;7.36;;;2.78;;
60641;SDS011;46837;52.446;-1.930;2023-08-21T01:51:07;11.52;;;1.44;;
60641;SDS011;46837;52.446;-1.930;2023-08-21T01:52:07;7.94;;;1.76;;
60641;SDS011;46837;52.446;-1.930;2023-08-21T01:53:07;6.80;;;2.12;;
60641;SDS011;46837;52.446;-1.930;2023-08-21T01:54:07;10.14;;;1.74;;
60641;SDS011;46837;52.446;-1.930;2023-08-21T01:55:08;5.68;;;1.64;;
60641;SDS011;46837;52.446;-1.930;2023-08-21T01:56:07;4.28;;;1.80;;
60641;SDS011;46837;52.446;-1.930;2023-08-21T01:57:07;6.06;;;1.66;;
60641;SDS011;46837;52.446;-1.930;2023-08-21T01:58:07;8.78;;;1.40;;
60641;SDS011;46837;52.446;-1.930;2023-08-21T01:59:07;5.66;;;1.78;;
60641;SDS011;46837;52.446;-1.930;2023-08-21T02:00:07;7.60;;;1.78;;
60641;SDS011;46837;52.446;-1.930;2023-08-21T02:01:07;10.60;;;1.94;;
60641;SDS011;46837;52.446;-1.930;2023-08-21T02:02:07;11.72;;;2.00;;
60641;SDS011;46837;52.446;-1.930;2023-08-21T02:03:07;6.76;;;2.64;;
60641;SDS011;46837;52.446;-1.930;2023-08-21T02:04:07;3.50;;;1.36;;
60641;SDS011;46837;52.446;-1.930;2023-08-21T02:05:07;14.10;;;1.92;;
60641;SDS011;46837;52.446;-1.930;2023-08-21T02:06:07;8.74;;;1.84;;
60641;SDS011;46837;52.446;-1.930;2023-08-21T02:07:07;5.44;;;2.00;;
60641;SDS011;46837;52.446;-1.930;2023-08-21T02:08:09;9.78;;;2.54;;
60641;SDS011;46837;52.446;-1.930;2023-08-21T02:09:07;8.36;;;1.30;;
60641;SDS011;46837;52.446;-1.930;2023-08-21T02:10:07;12.32;;;1.66;;
60641;SDS011;46837;52.446;-1.930;2023-08-21T02:11:07;3.20;;;1.40;;
60641;SDS011;46837;52.446;-1.930;2023-08-21T02:12:07;9.30;;;1.74;;
60641;SDS011;46837;52.446;-1.930;2023-08-21T02:13:07;7.04;;;1.60;;
60641;SDS011;46837;52.446;-1.930;2023-08-21T02:14:07;6.72;;;1.90;;
60641;SDS011;46837;52.446;-1.930;2023-08-21T02:15:07;4.26;;;1.52;;
60641;SDS011;46837;52.446;-1.930;2023-08-21T02:16:07;10.12;;;2.54;;
60641;SDS011;46837;52.446;-1.930;2023-08-21T02:17:07;7.36;;;1.60;;
60641;SDS011;46837;52.446;-1.930;2023-08-21T02:18:07;10.62;;;2.08;;
60641;SDS011;46837;52.446;-1.930;2023-08-21T02:19:07;7.68;;;2.10;;
60641;SDS011;46837;52.446;-1.930;2023-08-21T02:20:07;4.34;;;2.00;;
60641;SDS011;46837;52.446;-1.930;2023-08-21T02:21:07;11.86;;;2.86;;
60641;SDS011;46837;52.446;-1.930;2023-08-21T02:22:07;8.82;;;2.04;;
60641;SDS011;46837;52.446;-1.930;2023-08-21T02:23:07;8.48;;;2.66;;
60641;SDS011;46837;52.446;-1.930;2023-08-21T02:24:07;10.04;;;2.78;;
60641;SDS011;46837;52.446;-1.930;2023-08-21T02:25:07;4.10;;;1.94;;
60641;SDS011;46837;52.446;-1.930;2023-08-21T02:26:07;8.48;;;2.76;;
60641;SDS011;46837;52.446;-1.930;2023-08-21T02:27:07;5.96;;;2.10;;
60641;SDS011;46837;52.446;-1.930;2023-08-21T02:28:07;9.88;;;2.18;;
60641;SDS011;46837;52.446;-1.930;2023-08-21T02:29:07;3.46;;;2.16;;
60641;SDS011;46837;52.446;-1.930;2023-08-21T02:30:07;7.24;;;1.96;;
60641;SDS011;46837;52.446;-1.930;2023-08-21T02:31:09;6.10;;;1.66;;
60641;SDS011;46837;52.446;-1.930;2023-08-21T02:32:07;5.12;;;2.28;;
60641;SDS011;46837;52.446;-1.930;2023-08-21T02:33:07;6.02;;;1.80;;
60641;SDS011;46837;52.446;-1.930;2023-08-21T02:34:07;7.74;;;2.32;;
60641;SDS011;46837;52.446;-1.930;2023-08-21T02:35:07;4.54;;;1.46;;
60641;SDS011;46837;52.446;-1.930;2023-08-21T02:36:08;5.20;;;1.74;;
60641;SDS011;46837;52.446;-1.930;2023-08-21T02:37:07;8.88;;;2.46;;
60641;SDS011;46837;52.446;-1.930;2023-08-21T02:38:07;7.52;;;2.00;;
60641;SDS011;46837;52.446;-1.930;2023-08-21T02:39:07;9.12;;;2.94;;
60641;SDS011;46837;52.446;-1.930;2023-08-21T02:40:07;7.78;;;2.18;;
60641;SDS011;46837;52.446;-1.930;2023-08-21T02:41:07;4.00;;;1.96;;
60641;SDS011;46837;52.446;-1.930;2023-08-21T02:42:07;7.18;;;2.74;;
60641;SDS011;46837;52.446;-1.930;2023-08-21T02:43:07;13.28;;;3.40;;
60641;SDS011;46837;52.446;-1.930;2023-08-21T02:44:07;7.50;;;3.00;;
60641;SDS011;46837;52.446;-1.930;2023-08-21T02:45:09;10.04;;;2.42;;
60641;SDS011;46837;52.446;-1.930;2023-08-21T02:46:07;5.48;;;2.54;;
60641;SDS011;46837;52.446;-1.930;2023-08-21T02:47:07;11.12;;;2.50;;
60641;SDS011;46837;52.446;-1.930;2023-08-21T02:48:07;11.42;;;2.90;;
60641;SDS011;46837;52.446;-1.930;2023-08-21T02:49:07;11.08;;;3.40;;
60641;SDS011;46837;52.446;-1.930;2023-08-21T02:50:07;6.08;;;2.94;;
60641;SDS011;46837;52.446;-1.930;2023-08-21T02:51:07;8.64;;;3.60;;
60641;SDS011;46837;52.446;-1.930;2023-08-21T02:52:07;10.86;;;3.18;;
60641;SDS011;46837;52.446;-1.930;2023-08-21T02:53:07;5.06;;;2.28;;
60641;SDS011;46837;52.446;-1.930;2023-08-21T02:54:07;12.52;;;3.34;;
60641;SDS011;46837;52.446;-1.930;2023-08-21T02:55:07;9.50;;;2.82;;
60641;SDS011;46837;52.446;-1.930;2023-08-21T02:56:07;9.64;;;2.70;;
60641;SDS011;46837;52.446;-1.930;2023-08-21T02:57:07;8.74;;;1.92;;
60641;SDS011;46837;52.446;-1.930;2023-08-21T02:58:07;7.40;;;2.48;;
60641;SDS011;46837;52.446;-1.930;2023-08-21T02:59:07;11.78;;;2.76;;
60641;SDS011;46837;52.446;-1.930;2023-08-21T03:00:07;11.68;;;3.22;;
60641;SDS011;46837;52.446;-1.930;2023-08-21T03:01:07;6.42;;;2.36;;
60641;SDS011;46837;52.446;-1.930;2023-08-21T03:02:07;8.30;;;2.66;;
60641;SDS011;46837;52.446;-1.930;2023-08-21T03:03:07;9.14;;;2.70;;
60641;SDS011;46837;52.446;-1.930;2023-08-21T03:04:07;9.84;;;3.12;;
60641;SDS011;46837;52.446;-1.930;2023-08-21T03:05:07;5.38;;;2.28;;
60641;SDS011;46837;52.446;-1.930;2023-08-21T03:06:07;14.60;;;2.62;;
60641;SDS011;46837;52.446;-1.930;2023-08-21T03:07:07;8.20;;;2.18;;
60641;SDS011;46837;52.446;-1.930;2023-08-21T03:08:07;8.94;;;3.20;;
60641;SDS011;46837;52.446;-1.930;2023-08-21T03:09:07;9.70;;;2.66;;
60641;SDS011;46837;52.446;-1.930;2023-08-21T03:10:07;10.98;;;2.12;;
60641;SDS011;46837;52.446;-1.930;2023-08-21T03:11:07;7.64;;;2.62;;
60641;SDS011;46837;52.446;-1.930;2023-08-21T03:12:07;8.92;;;2.58;;
60641;SDS011;46837;52.446;-1.930;2023-08-21T03:13:07;8.98;;;3.54;;
60641;SDS011;46837;52.446;-1.930;2023-08-21T03:14:07;13.78;;;3.48;;
60641;SDS011;46837;52.446;-1.930;2023-08-21T03:15:07;5.32;;;2.60;;
60641;SDS011;46837;52.446;-1.930;2023-08-21T03:16:07;4.18;;;2.60;;
60641;SDS011;46837;52.446;-1.930;2023-08-21T03:17:07;7.74;;;2.70;;
60641;SDS011;46837;52.446;-1.930;2023-08-21T03:18:07;6.46;;;2.18;;
60641;SDS011;46837;52.446;-1.930;2023-08-21T03:19:07;6.98;;;2.42;;
60641;SDS011;46837;52.446;-1.930;2023-08-21T03:20:07;7.54;;;2.32;;
60641;SDS011;46837;52.446;-1.930;2023-08-21T03:21:07;5.58;;;1.94;;
60641;SDS011;46837;52.446;-1.930;2023-08-21T03:22:07;4.20;;;1.96;;
60641;SDS011;46837;52.446;-1.930;2023-08-21T03:23:07;8.60;;;2.68;;
60641;SDS011;46837;52.446;-1.930;2023-08-21T03:24:07;10.00;;;3.24;;
60641;SDS011;46837;52.446;-1.930;2023-08-21T03:25:07;7.08;;;3.02;;
60641;SDS011;46837;52.446;-1.930;2023-08-21T03:26:07;8.70;;;3.24;;
60641;SDS011;46837;52.446;-1.930;2023-08-21T03:27:07;14.60;;;3.20;;
60641;SDS011;46837;52.446;-1.930;2023-08-21T03:28:07;9.52;;;2.86;;
60641;SDS011;46837;52.446;-1.930;2023-08-21T03:29:07;9.02;;;2.88;;
60641;SDS011;46837;52.446;-1.930;2023-08-21T03:30:07;8.32;;;3.10;;
60641;SDS011;46837;52.446;-1.930;2023-08-21T03:31:07;5.00;;;2.48;;
60641;SDS011;46837;52.446;-1.930;2023-08-21T03:32:07;11.88;;;2.88;;
60641;SDS011;46837;52.446;-1.930;2023-08-21T03:33:07;5.38;;;2.06;;
60641;SDS011;46837;52.446;-1.930;2023-08-21T03:34:07;11.00;;;2.84;;
60641;SDS011;46837;52.446;-1.930;2023-08-21T03:35:07;5.58;;;2.80;;
60641;SDS011;46837;52.446;-1.930;2023-08-21T03:36:07;6.38;;;3.22;;
60641;SDS011;46837;52.446;-1.930;2023-08-21T03:37:07;8.08;;;3.22;;
60641;SDS011;46837;52.446;-1.930;2023-08-21T03:38:07;7.08;;;2.72;;
60641;SDS011;46837;52.446;-1.930;2023-08-21T03:39:07;10.46;;;2.78;;
60641;SDS011;46837;52.446;-1.930;2023-08-21T03:40:07;12.54;;;3.42;;
60641;SDS011;46837;52.446;-1.930;2023-08-21T03:41:07;8.00;;;2.44;;
60641;SDS011;46837;52.446;-1.930;2023-08-21T03:42:07;7.88;;;2.54;;
60641;SDS011;46837;52.446;-1.930;2023-08-21T03:43:07;5.38;;;2.50;;
60641;SDS011;46837;52.446;-1.930;2023-08-21T03:44:07;8.08;;;2.20;;
60641;SDS011;46837;52.446;-1.930;2023-08-21T03:45:07;8.02;;;2.46;;
60641;SDS011;46837;52.446;-1.930;2023-08-21T03:46:07;7.24;;;2.78;;
60641;SDS011;46837;52.446;-1.930;2023-08-21T03:47:07;6.82;;;2.76;;
60641;SDS011;46837;52.446;-1.930;2023-08-21T03:48:07;6.70;;;3.06;;
60641;SDS011;46837;52.446;-1.930;2023-08-21T03:49:07;13.46;;;3.74;;
60641;SDS011;46837;52.446;-1.930;2023-08-21T03:50:07;7.78;;;3.26;;
60641;SDS011;46837;52.446;-1.930;2023-08-21T03:51:07;9.52;;;2.18;;
60641;SDS011;46837;52.446;-1.930;2023-08-21T03:52:07;9.26;;;2.40;;
60641;SDS011;46837;52.446;-1.930;2023-08-21T03:53:07;11.28;;;3.08;;
60641;SDS011;46837;52.446;-1.930;2023-08-21T03:54:07;7.06;;;2.82;;
60641;SDS011;46837;52.446;-1.930;2023-08-21T03:55:07;11.20;;;4.22;;
60641;SDS011;46837;52.446;-1.930;2023-08-21T03:56:07;11.60;;;3.92;;
60641;SDS011;46837;52.446;-1.930;2023-08-21T03:57:07;12.02;;;4.28;;
60641;SDS011;46837;52.446;-1.930;2023-08-21T03:58:07;15.30;;;4.70;;
60641;SDS011;46837;52.446;-1.930;2023-08-21T03:59:07;7.00;;;3.64;;
60641;SDS011;46837;52.446;-1.930;2023-08-21T04:00:07;14.24;;;3.98;;
60641;SDS011;46837;52.446;-1.930;2023-08-21T04:01:07;8.62;;;3.42;;
60641;SDS011;46837;52.446;-1.930;2023-08-21T04:02:07;7.90;;;3.38;;
60641;SDS011;46837;52.446;-1.930;2023-08-21T04:03:07;11.72;;;3.24;;
60641;SDS011;46837;52.446;-1.930;2023-08-21T04:04:07;12.26;;;3.82;;
60641;SDS011;46837;52.446;-1.930;2023-08-21T04:05:07;6.64;;;3.20;;
60641;SDS011;46837;52.446;-1.930;2023-08-21T04:06:07;8.44;;;2.72;;
60641;SDS011;46837;52.446;-1.930;2023-08-21T04:07:07;9.96;;;3.34;;
60641;SDS011;46837;52.446;-1.930;2023-08-21T04:08:07;10.64;;;2.86;;
60641;SDS011;46837;52.446;-1.930;2023-08-21T04:09:07;15.16;;;4.90;;
60641;SDS011;46837;52.446;-1.930;2023-08-21T04:10:07;10.40;;;3.66;;
60641;SDS011;46837;52.446;-1.930;2023-08-21T04:11:07;8.88;;;3.78;;
60641;SDS011;46837;52.446;-1.930;2023-08-21T04:12:07;8.48;;;3.64;;
60641;SDS011;46837;52.446;-1.930;2023-08-21T04:13:07;7.00;;;2.86;;
60641;SDS011;46837;52.446;-1.930;2023-08-21T04:14:07;12.76;;;3.76;;
60641;SDS011;46837;52.446;-1.930;2023-08-21T04:15:07;10.98;;;3.28;;
60641;SDS011;46837;52.446;-1.930;2023-08-21T04:16:07;11.72;;;3.64;;
60641;SDS011;46837;52.446;-1.930;2023-08-21T04:17:07;18.90;;;4.48;;
60641;SDS011;46837;52.446;-1.930;2023-08-21T04:18:07;10.68;;;4.34;;
60641;SDS011;46837;52.446;-1.930;2023-08-21T04:19:07;16.96;;;5.04;;
60641;SDS011;46837;52.446;-1.930;2023-08-21T04:20:07;8.40;;;4.30;;
60641;SDS011;46837;52.446;-1.930;2023-08-21T04:21:07;14.30;;;4.04;;
60641;SDS011;46837;52.446;-1.930;2023-08-21T04:22:07;14.80;;;4.28;;
60641;SDS011;46837;52.446;-1.930;2023-08-21T04:23:07;7.50;;;3.22;;
60641;SDS011;46837;52.446;-1.930;2023-08-21T04:24:07;13.20;;;3.96;;
60641;SDS011;46837;52.446;-1.930;2023-08-21T04:25:07;9.62;;;3.44;;
60641;SDS011;46837;52.446;-1.930;2023-08-21T04:26:07;14.50;;;4.50;;
60641;SDS011;46837;52.446;-1.930;2023-08-21T04:27:07;15.36;;;4.24;;
60641;SDS011;46837;52.446;-1.930;2023-08-21T04:28:07;11.90;;;4.94;;
60641;SDS011;46837;52.446;-1.930;2023-08-21T04:29:07;14.68;;;3.90;;
60641;SDS011;46837;52.446;-1.930;2023-08-21T04:30:07;9.38;;;4.74;;
60641;SDS011;46837;52.446;-1.930;2023-08-21T04:31:07;10.44;;;3.68;;
60641;SDS011;46837;52.446;-1.930;2023-08-21T04:32:07;4.52;;;3.60;;
60641;SDS011;46837;52.446;-1.930;2023-08-21T04:33:07;8.26;;;4.30;;
60641;SDS011;46837;52.446;-1.930;2023-08-21T04:34:07;12.98;;;5.08;;
60641;SDS011;46837;52.446;-1.930;2023-08-21T04:35:07;10.94;;;5.00;;
60641;SDS011;46837;52.446;-1.930;2023-08-21T04:36:07;13.24;;;4.78;;
60641;SDS011;46837;52.446;-1.930;2023-08-21T04:37:07;15.66;;;4.90;;
60641;SDS011;46837;52.446;-1.930;2023-08-21T04:38:07;12.88;;;5.46;;
60641;SDS011;46837;52.446;-1.930;2023-08-21T04:39:07;7.60;;;5.30;;
60641;SDS011;46837;52.446;-1.930;2023-08-21T04:40:07;7.56;;;4.70;;
60641;SDS011;46837;52.446;-1.930;2023-08-21T04:41:07;5.54;;;3.80;;
60641;SDS011;46837;52.446;-1.930;2023-08-21T04:42:07;12.14;;;4.78;;
60641;SDS011;46837;52.446;-1.930;2023-08-21T04:43:07;7.76;;;4.90;;
60641;SDS011;46837;52.446;-1.930;2023-08-21T04:44:07;9.92;;;5.20;;
60641;SDS011;46837;52.446;-1.930;2023-08-21T04:45:07;14.16;;;4.92;;
60641;SDS011;46837;52.446;-1.930;2023-08-21T04:46:07;16.98;;;5.72;;
60641;SDS011;46837;52.446;-1.930;2023-08-21T04:48:07;10.90;;;5.56;;
60641;SDS011;46837;52.446;-1.930;2023-08-21T04:49:07;11.06;;;4.96;;
60641;SDS011;46837;52.446;-1.930;2023-08-21T04:50:07;14.84;;;5.04;;
60641;SDS011;46837;52.446;-1.930;2023-08-21T04:51:07;14.62;;;5.54;;
60641;SDS011;46837;52.446;-1.930;2023-08-21T04:52:07;12.42;;;5.52;;
60641;SDS011;46837;52.446;-1.930;2023-08-21T04:53:07;15.48;;;6.58;;
60641;SDS011;46837;52.446;-1.930;2023-08-21T04:54:07;12.44;;;4.54;;
60641;SDS011;46837;52.446;-1.930;2023-08-21T04:55:07;17.60;;;5.22;;
60641;SDS011;46837;52.446;-1.930;2023-08-21T04:56:07;14.54;;;5.60;;
60641;SDS011;46837;52.446;-1.930;2023-08-21T04:57:07;18.50;;;5.40;;
60641;SDS011;46837;52.446;-1.930;2023-08-21T04:58:07;12.60;;;5.08;;
60641;SDS011;46837;52.446;-1.930;2023-08-21T04:59:07;7.60;;;4.92;;
60641;SDS011;46837;52.446;-1.930;2023-08-21T05:00:07;11.72;;;4.86;;
60641;SDS011;46837;52.446;-1.930;2023-08-21T05:01:07;15.24;;;5.28;;
60641;SDS011;46837;52.446;-1.930;2023-08-21T05:02:07;18.72;;;5.64;;
60641;SDS011;46837;52.446;-1.930;2023-08-21T05:03:07;10.44;;;5.90;;
60641;SDS011;46837;52.446;-1.930;2023-08-21T05:04:07;17.42;;;6.02;;
60641;SDS011;46837;52.446;-1.930;2023-08-21T05:05:07;18.16;;;5.52;;
60641;SDS011;46837;52.446;-1.930;2023-08-21T05:06:07;19.74;;;7.24;;
60641;SDS011;46837;52.446;-1.930;2023-08-21T05:07:07;18.72;;;6.04;;
60641;SDS011;46837;52.446;-1.930;2023-08-21T05:08:07;11.18;;;5.96;;
60641;SDS011;46837;52.446;-1.930;2023-08-21T05:09:07;13.38;;;6.28;;
60641;SDS011;46837;52.446;-1.930;2023-08-21T05:10:07;23.78;;;8.28;;
60641;SDS011;46837;52.446;-1.930;2023-08-21T05:11:07;17.68;;;6.34;;
60641;SDS011;46837;52.446;-1.930;2023-08-21T05:12:07;14.92;;;6.40;;
60641;SDS011;46837;52.446;-1.930;2023-08-21T05:13:07;20.42;;;6.56;;
60641;SDS011;46837;52.446;-1.930;2023-08-21T05:14:07;17.84;;;7.38;;
60641;SDS011;46837;52.446;-1.930;2023-08-21T05:15:07;13.00;;;5.80;;
60641;SDS011;46837;52.446;-1.930;2023-08-21T05:16:07;15.04;;;5.82;;
60641;SDS011;46837;52.446;-1.930;2023-08-21T05:17:07;18.48;;;7.30;;
60641;SDS011;46837;52.446;-1.930;2023-08-21T05:18:07;15.22;;;6.18;;
60641;SDS011;46837;52.446;-1.930;2023-08-21T05:19:07;10.46;;;5.36;;
60641;SDS011;46837;52.446;-1.930;2023-08-21T05:20:07;13.62;;;5.12;;
60641;SDS011;46837;52.446;-1.930;2023-08-21T05:21:07;11.28;;;5.94;;
60641;SDS011;46837;52.446;-1.930;2023-08-21T05:22:07;11.40;;;5.66;;
60641;SDS011;46837;52.446;-1.930;2023-08-21T05:23:07;14.26;;;6.62;;
60641;SDS011;46837;52.446;-1.930;2023-08-21T05:24:07;15.12;;;6.02;;
60641;SDS011;46837;52.446;-1.930;2023-08-21T05:25:07;13.02;;;5.94;;
60641;SDS011;46837;52.446;-1.930;2023-08-21T05:26:07;10.62;;;6.30;;
60641;SDS011;46837;52.446;-1.930;2023-08-21T05:27:07;16.96;;;5.70;;
60641;SDS011;46837;52.446;-1.930;2023-08-21T05:28:07;16.36;;;6.38;;
60641;SDS011;46837;52.446;-1.930;2023-08-21T05:29:07;12.86;;;5.58;;
60641;SDS011;46837;52.446;-1.930;2023-08-21T05:30:07;12.20;;;6.44;;
60641;SDS011;46837;52.446;-1.930;2023-08-21T05:31:07;11.06;;;5.30;;
60641;SDS011;46837;52.446;-1.930;2023-08-21T05:32:07;20.72;;;6.32;;
60641;SDS011;46837;52.446;-1.930;2023-08-21T05:33:07;13.86;;;5.42;;
60641;SDS011;46837;52.446;-1.930;2023-08-21T05:34:07;19.54;;;6.48;;
60641;SDS011;46837;52.446;-1.930;2023-08-21T05:35:07;15.50;;;6.26;;
60641;SDS011;46837;52.446;-1.930;2023-08-21T05:36:07;15.10;;;5.20;;
60641;SDS011;46837;52.446;-1.930;2023-08-21T05:37:07;14.64;;;4.10;;
60641;SDS011;46837;52.446;-1.930;2023-08-21T05:38:07;12.28;;;4.66;;
60641;SDS011;46837;52.446;-1.930;2023-08-21T05:39:07;13.18;;;5.04;;
60641;SDS011;46837;52.446;-1.930;2023-08-21T05:40:07;12.12;;;5.42;;
60641;SDS011;46837;52.446;-1.930;2023-08-21T05:41:07;10.66;;;5.02;;
60641;SDS011;46837;52.446;-1.930;2023-08-21T05:42:07;15.74;;;4.82;;
60641;SDS011;46837;52.446;-1.930;2023-08-21T05:43:07;16.70;;;4.94;;
60641;SDS011;46837;52.446;-1.930;2023-08-21T05:44:07;13.06;;;4.82;;
60641;SDS011;46837;52.446;-1.930;2023-08-21T05:45:07;17.48;;;5.42;;
60641;SDS011;46837;52.446;-1.930;2023-08-21T05:46:07;17.36;;;5.54;;
60641;SDS011;46837;52.446;-1.930;2023-08-21T05:47:07;8.36;;;4.02;;
60641;SDS011;46837;52.446;-1.930;2023-08-21T05:48:07;22.28;;;5.92;;
60641;SDS011;46837;52.446;-1.930;2023-08-21T05:49:07;7.36;;;3.66;;
60641;SDS011;46837;52.446;-1.930;2023-08-21T05:50:07;19.58;;;6.44;;
60641;SDS011;46837;52.446;-1.930;2023-08-21T05:51:07;17.28;;;5.38;;
60641;SDS011;46837;52.446;-1.930;2023-08-21T05:52:08;17.70;;;4.54;;
60641;SDS011;46837;52.446;-1.930;2023-08-21T05:53:07;17.18;;;5.20;;
60641;SDS011;46837;52.446;-1.930;2023-08-21T05:54:07;11.22;;;4.26;;
60641;SDS011;46837;52.446;-1.930;2023-08-21T05:55:07;22.06;;;5.58;;
60641;SDS011;46837;52.446;-1.930;2023-08-21T05:56:07;7.70;;;4.12;;